createdAt,value
2022-09-03T00:00:40.077Z,68.12
2022-09-03T00:03:17.856Z,67.88
2022-09-03T00:06:10.616Z,67.76
2022-09-03T00:08:42.351Z,66.66
2022-09-03T00:11:26.251Z,66.22
2022-09-03T00:14:19.480Z,66.34
2022-09-03T00:16:57.797Z,67.00
2022-09-03T00:19:29.155Z,68.61
2022-09-03T00:22:00.396Z,69.11
2022-09-03T00:24:31.069Z,69.72
2022-09-03T00:27:03.297Z,67.45
2022-09-03T00:29:57.832Z,68.09
2022-09-03T00:33:10.127Z,67.17
2022-09-03T00:35:40.586Z,68.09
2022-09-03T00:38:08.234Z,68.59
2022-09-03T00:41:00.633Z,68.31
2022-09-03T00:43:48.202Z,69.97
2022-09-03T00:46:36.337Z,68.87
2022-09-03T00:49:28.200Z,70.37
2022-09-03T00:52:11.524Z,69.21
2022-09-03T00:54:46.918Z,69.09
2022-09-03T00:57:32.252Z,69.44
2022-09-03T01:00:10.412Z,68.62
2022-09-03T01:03:06.952Z,68.40
2022-09-03T01:05:56.496Z,68.47
2022-09-03T01:08:44.048Z,67.70
2022-09-03T01:11:20.016Z,67.65
2022-09-03T01:13:52.617Z,67.68
2022-09-03T01:16:37.743Z,66.81
2022-09-03T01:19:12.283Z,68.02
2022-09-03T01:21:55.356Z,67.27
2022-09-03T01:24:32.871Z,68.28
2022-09-03T01:27:15.321Z,68.27
2022-09-03T01:29:55.647Z,68.62
2022-09-03T01:32:41.082Z,68.42
2022-09-03T01:35:42.611Z,67.79
2022-09-03T01:38:27.533Z,68.30
2022-09-03T01:41:28.674Z,67.47
2022-09-03T01:44:22.333Z,68.63
2022-09-03T01:46:56.540Z,68.23
2022-09-03T01:49:41.368Z,68.05
2022-09-03T01:52:29.617Z,67.12
2022-09-03T01:55:33.397Z,68.93
2022-09-03T01:58:12.945Z,68.99
2022-09-03T02:00:43.976Z,68.81
2022-09-03T02:03:12.689Z,68.31
2022-09-03T02:05:39.564Z,67.97
2022-09-03T02:08:09.007Z,67.23
2022-09-03T02:10:43.830Z,67.86
2022-09-03T02:13:38.716Z,69.07
2022-09-03T02:16:15.908Z,69.02
2022-09-03T02:18:46.964Z,69.36
2022-09-03T02:21:18.075Z,67.56
2022-09-03T02:23:44.849Z,66.95
2022-09-03T02:26:14.687Z,67.78
2022-09-03T02:28:41.790Z,67.11
2022-09-03T02:31:08.568Z,67.29
2022-09-03T02:33:40.918Z,67.93
2022-09-03T02:36:10.431Z,68.02
2022-09-03T02:38:37.434Z,67.03
2022-09-03T02:41:04.175Z,66.98
2022-09-03T02:43:42.131Z,69.27
2022-09-03T02:46:18.085Z,67.48
2022-09-03T02:48:44.741Z,67.82
2022-09-03T02:51:14.339Z,67.61
2022-09-03T02:53:42.533Z,69.66
2022-09-03T02:56:09.250Z,69.49
2022-09-03T02:58:35.928Z,68.01
2022-09-03T03:01:03.956Z,67.02
2022-09-03T03:03:30.757Z,67.10
2022-09-03T03:06:01.608Z,67.56
2022-09-03T03:08:29.141Z,67.40
2022-09-03T03:10:58.864Z,66.72
2022-09-03T03:13:27.292Z,66.81
2022-09-03T03:15:59.021Z,69.31
2022-09-03T03:18:25.901Z,69.28
2022-09-03T03:20:52.719Z,68.40
2022-09-03T03:23:19.571Z,70.61
2022-09-03T03:25:46.847Z,69.79
2022-09-03T03:28:16.426Z,69.17
2022-09-03T03:30:43.208Z,68.77
2022-09-03T03:33:10.432Z,70.88
2022-09-03T03:35:37.486Z,70.96
2022-09-03T03:38:05.137Z,69.99
2022-09-03T03:40:32.035Z,69.42
2022-09-03T03:42:59.027Z,69.51
2022-09-03T03:45:25.837Z,68.77
2022-09-03T03:47:52.936Z,70.01
2022-09-03T03:50:19.739Z,70.00
2022-09-03T03:52:46.391Z,71.13
2022-09-03T03:55:13.113Z,69.91
2022-09-03T03:57:42.762Z,70.49
2022-09-03T04:00:09.980Z,71.04
2022-09-03T04:02:39.192Z,70.30
2022-09-03T04:05:06.437Z,70.45
2022-09-03T04:07:34.497Z,69.39
2022-09-03T04:10:01.434Z,70.03
2022-09-03T04:12:28.126Z,69.86
2022-09-03T04:14:54.782Z,69.72
2022-09-03T04:17:25.148Z,70.01
2022-09-03T04:19:52.158Z,70.00
2022-09-03T04:22:19.723Z,69.80
2022-09-03T04:24:46.358Z,69.55
2022-09-03T04:27:13.100Z,69.56
2022-09-03T04:29:39.867Z,70.32
2022-09-03T04:32:24.993Z,72.48
2022-09-03T04:34:51.622Z,71.10
2022-09-03T04:37:19.945Z,72.44
2022-09-03T04:39:46.846Z,72.26
2022-09-03T04:42:13.537Z,71.85
2022-09-03T04:44:41.210Z,72.09
2022-09-03T04:47:08.057Z,72.13
2022-09-03T04:49:34.876Z,71.05
2022-09-03T04:52:02.682Z,72.75
2022-09-03T04:54:29.641Z,72.35
2022-09-03T04:56:56.779Z,71.87
2022-09-03T04:59:23.413Z,71.73
2022-09-03T05:01:50.168Z,71.00
2022-09-03T05:04:16.824Z,70.35
2022-09-03T05:06:43.545Z,70.18
2022-09-03T05:09:10.190Z,69.18
2022-09-03T05:11:37.103Z,69.01
2022-09-03T05:14:05.961Z,69.90
2022-09-03T05:16:33.137Z,69.75
2022-09-03T05:19:01.310Z,69.75
2022-09-03T05:21:29.382Z,71.00
2022-09-03T05:23:56.539Z,71.86
2022-09-03T05:26:25.751Z,73.20
2022-09-03T05:29:04.370Z,71.53
2022-09-03T05:31:32.287Z,72.81
2022-09-03T05:34:01.567Z,71.38
2022-09-03T05:36:31.978Z,69.71
2022-09-03T05:39:01.808Z,69.00
2022-09-03T05:41:29.804Z,69.26
2022-09-03T05:43:59.337Z,69.33
2022-09-03T05:46:34.347Z,69.39
2022-09-03T05:49:06.062Z,69.92
2022-09-03T05:51:34.114Z,70.72
2022-09-03T05:54:01.935Z,70.58
2022-09-03T05:56:30.644Z,71.21
2022-09-03T05:59:05.796Z,70.73
2022-09-03T06:01:34.906Z,70.55
2022-09-03T06:04:04.335Z,70.06
2022-09-03T06:06:33.581Z,68.79
2022-09-03T06:09:06.796Z,69.24
2022-09-03T06:11:35.506Z,67.70
2022-09-03T06:14:08.562Z,70.99
2022-09-03T06:16:41.186Z,68.71
2022-09-03T06:19:13.274Z,70.37
2022-09-03T06:21:43.002Z,70.93
2022-09-03T06:24:17.309Z,69.40
2022-09-03T06:26:45.078Z,68.32
2022-09-03T06:29:12.530Z,66.95
2022-09-03T06:31:39.916Z,65.84
2022-09-03T06:34:06.724Z,65.26
2022-09-03T06:36:33.721Z,65.45
2022-09-03T06:39:00.516Z,63.78
2022-09-03T06:41:31.825Z,65.41
2022-09-03T06:44:03.250Z,67.36
2022-09-03T06:46:35.281Z,68.06
2022-09-03T06:49:02.655Z,68.87
2022-09-03T06:51:31.241Z,66.97
2022-09-03T06:54:06.425Z,67.32
2022-09-03T06:56:39.576Z,67.79
2022-09-03T06:59:16.080Z,67.96
2022-09-03T07:01:52.956Z,67.96
2022-09-03T07:04:20.329Z,65.53
2022-09-03T07:06:47.714Z,65.03
2022-09-03T07:09:15.873Z,66.50
2022-09-03T07:11:47.990Z,65.42
2022-09-03T07:14:19.817Z,66.14
2022-09-03T07:16:47.985Z,66.14
2022-09-03T07:19:15.662Z,66.35
2022-09-03T07:21:48.406Z,65.12
2022-09-03T07:24:16.823Z,64.47
2022-09-03T07:26:48.821Z,65.73
2022-09-03T07:29:16.574Z,65.79
2022-09-03T07:31:44.265Z,63.19
2022-09-03T07:34:12.947Z,63.33
2022-09-03T07:36:48.657Z,63.01
2022-09-03T07:39:18.027Z,64.36
2022-09-03T07:41:46.231Z,64.77
2022-09-03T07:44:22.888Z,64.44
2022-09-03T07:46:51.435Z,65.56
2022-09-03T07:49:18.757Z,65.40
2022-09-03T07:51:46.645Z,64.32
2022-09-03T07:54:13.388Z,63.41
2022-09-03T07:56:41.188Z,64.54
2022-09-03T07:59:08.949Z,63.48
2022-09-03T08:01:36.933Z,62.36
2022-09-03T08:04:07.047Z,61.50
2022-09-03T08:06:40.315Z,62.85
2022-09-03T08:09:11.442Z,60.88
2022-09-03T08:11:40.316Z,62.04
2022-09-03T08:14:09.532Z,61.99
2022-09-03T08:16:39.696Z,62.19
2022-09-03T08:19:07.699Z,63.09
2022-09-03T08:21:35.189Z,61.11
2022-09-03T08:24:05.889Z,61.34
2022-09-03T08:26:37.835Z,60.65
2022-09-03T08:29:05.776Z,61.20
2022-09-03T08:31:34.470Z,61.78
2022-09-03T08:34:04.939Z,62.94
2022-09-03T08:36:34.041Z,62.20
2022-09-03T08:39:08.216Z,61.77
2022-09-03T08:41:53.414Z,61.20
2022-09-03T08:44:35.250Z,61.72
2022-09-03T08:47:20.830Z,63.57
2022-09-03T08:50:22.890Z,62.07
2022-09-03T08:53:02.067Z,61.96
2022-09-03T08:55:31.172Z,62.05
2022-09-03T08:58:06.406Z,61.73
2022-09-03T09:01:01.625Z,59.92
2022-09-03T09:04:09.767Z,60.15
2022-09-03T09:06:52.590Z,63.09
2022-09-03T09:09:19.190Z,61.08
2022-09-03T09:11:46.182Z,59.72
2022-09-03T09:14:39.400Z,60.11
2022-09-03T09:17:13.312Z,60.35
2022-09-03T09:19:47.367Z,58.21
2022-09-03T09:22:30.546Z,59.23
2022-09-03T09:25:02.253Z,58.28
2022-09-03T09:27:29.873Z,58.08
2022-09-03T09:30:01.919Z,58.24
2022-09-03T09:32:29.148Z,58.16
2022-09-03T09:34:55.813Z,57.74
2022-09-03T09:37:22.525Z,56.57
2022-09-03T09:39:57.863Z,57.87
2022-09-03T09:42:25.767Z,57.46
2022-09-03T09:44:52.823Z,57.76
2022-09-03T09:47:38.659Z,56.39
2022-09-03T09:50:25.097Z,55.97
2022-09-03T09:53:14.625Z,56.30
2022-09-03T09:55:52.801Z,57.14
2022-09-03T09:58:21.314Z,57.64
2022-09-03T10:01:00.571Z,57.32
2022-09-03T10:03:29.958Z,56.67
2022-09-03T10:06:28.941Z,56.84
2022-09-03T10:09:10.907Z,56.74
2022-09-03T10:11:41.173Z,56.65
2022-09-03T10:14:25.316Z,56.35
2022-09-03T10:17:02.540Z,57.02
2022-09-03T10:19:40.553Z,57.50
2022-09-03T10:22:17.944Z,57.30
2022-09-03T10:24:58.061Z,56.52
2022-09-03T10:27:25.966Z,58.01
2022-09-03T10:29:53.463Z,57.25
2022-09-03T10:33:01.150Z,56.78
2022-09-03T10:35:45.842Z,57.71
2022-09-03T10:38:18.774Z,57.79
2022-09-03T10:41:14.824Z,56.79
2022-09-03T10:43:58.295Z,56.42
2022-09-03T10:46:35.907Z,55.82
2022-09-03T10:49:40.666Z,55.54
2022-09-03T10:52:20.788Z,55.68
2022-09-03T10:55:24.530Z,57.42
2022-09-03T10:57:56.791Z,58.98
2022-09-03T11:00:24.342Z,56.26
2022-09-03T11:05:42.706Z,55.08
2022-09-03T11:08:22.051Z,55.62
2022-09-03T11:10:54.922Z,54.26
2022-09-03T11:13:35.480Z,56.83
2022-09-03T11:16:06.735Z,56.46
2022-09-03T11:18:41.217Z,56.11
2022-09-03T11:21:13.179Z,55.42
2022-09-03T11:23:47.662Z,55.62
2022-09-03T11:26:18.681Z,54.34
2022-09-03T11:28:59.775Z,55.90
2022-09-03T11:31:59.240Z,54.98
2022-09-03T11:34:33.969Z,53.64
2022-09-03T11:37:15.723Z,54.52
2022-09-03T11:39:42.495Z,53.19
2022-09-03T11:42:28.362Z,52.12
2022-09-03T11:45:01.028Z,52.89
2022-09-03T11:47:43.804Z,53.44
2022-09-03T11:50:26.159Z,53.82
2022-09-03T11:53:06.777Z,52.52
2022-09-03T11:55:46.438Z,53.26
2022-09-03T11:58:25.508Z,54.72
2022-09-03T12:00:54.213Z,54.53
2022-09-03T12:03:28.688Z,51.99
2022-09-03T12:06:13.843Z,53.19
2022-09-03T12:09:24.551Z,52.62
2022-09-03T12:12:07.055Z,51.86
2022-09-03T12:14:39.519Z,52.74
2022-09-03T12:17:21.271Z,53.74
2022-09-03T12:19:55.908Z,52.35
2022-09-03T12:22:28.806Z,50.59
2022-09-03T12:24:56.301Z,51.59
2022-09-03T12:27:26.230Z,53.06
2022-09-03T12:30:00.561Z,53.46
2022-09-03T12:32:39.379Z,54.16
2022-09-03T12:38:09.900Z,52.09
2022-09-03T12:43:38.205Z,52.72
2022-09-03T12:46:13.729Z,52.06
2022-09-03T12:49:30.040Z,52.24
2022-09-03T12:51:53.363Z,49.91
2022-09-03T12:54:23.138Z,51.54
2022-09-03T12:56:56.651Z,47.95
2022-09-03T12:59:25.062Z,49.77
2022-09-03T13:01:54.984Z,52.08
2022-09-03T13:04:28.150Z,51.43
2022-09-03T13:07:06.004Z,50.41
2022-09-03T13:09:37.909Z,50.37
2022-09-03T13:12:06.007Z,49.39
2022-09-03T13:14:44.200Z,50.33
2022-09-03T13:17:38.738Z,48.86
2022-09-03T13:20:17.709Z,50.60
2022-09-03T13:23:05.234Z,48.44
2022-09-03T13:25:41.950Z,49.66
2022-09-03T13:28:27.505Z,48.77
2022-09-03T13:31:02.309Z,47.62
2022-09-03T13:33:42.182Z,47.27
2022-09-03T13:36:28.622Z,47.80
2022-09-03T13:39:06.113Z,48.55
2022-09-03T13:42:00.201Z,49.26
2022-09-03T13:44:41.132Z,48.79
2022-09-03T13:47:28.742Z,48.31
2022-09-03T13:50:22.730Z,48.55
2022-09-03T13:53:01.219Z,48.01
2022-09-03T13:55:43.162Z,47.25
2022-09-03T13:58:23.068Z,46.27
2022-09-03T14:01:06.194Z,47.94
2022-09-03T14:03:56.382Z,48.09
2022-09-03T14:06:36.842Z,47.05
2022-09-03T14:09:18.566Z,47.71
2022-09-03T14:11:51.228Z,47.10
2022-09-03T14:14:31.572Z,47.69
2022-09-03T14:17:10.146Z,47.13
2022-09-03T14:19:48.838Z,46.40
2022-09-03T14:22:25.690Z,46.76
2022-09-03T14:25:26.437Z,46.97
2022-09-03T14:27:55.371Z,47.57
2022-09-03T14:30:55.586Z,46.85
2022-09-03T14:33:25.643Z,47.06
2022-09-03T14:35:58.985Z,46.65
2022-09-03T14:38:56.025Z,46.54
2022-09-03T14:41:28.247Z,45.88
2022-09-03T14:43:57.895Z,45.06
2022-09-03T14:46:45.939Z,46.92
2022-09-03T14:49:31.163Z,47.61
2022-09-03T14:52:17.244Z,46.68
2022-09-03T14:55:12.810Z,47.29
2022-09-03T14:58:20.487Z,47.67
2022-09-03T15:01:11.427Z,48.15
2022-09-03T15:03:44.084Z,47.89
2022-09-03T15:06:37.917Z,47.44
2022-09-03T15:09:28.468Z,47.05
2022-09-03T15:12:03.614Z,49.27
2022-09-03T15:14:56.036Z,47.91
2022-09-03T15:17:28.402Z,48.12
2022-09-03T15:20:32.502Z,48.00
2022-09-03T15:23:18.485Z,48.13
2022-09-03T15:25:50.713Z,48.12
2022-09-03T15:28:34.577Z,47.66
2022-09-03T15:31:20.199Z,48.04
2022-09-03T15:33:56.852Z,48.40
2022-09-03T15:36:35.002Z,48.43
2022-09-03T15:39:06.984Z,48.59
2022-09-03T15:42:02.805Z,49.29
2022-09-03T15:44:37.967Z,48.76
2022-09-03T15:47:14.428Z,48.24
2022-09-03T15:50:07.542Z,48.97
2022-09-03T15:52:54.197Z,49.45
2022-09-03T15:55:42.432Z,48.74
2022-09-03T15:58:35.377Z,48.33
2022-09-03T16:01:27.076Z,48.08
2022-09-03T16:03:56.895Z,48.76
2022-09-03T16:06:39.220Z,49.53
2022-09-03T16:09:10.770Z,49.83
2022-09-03T16:11:51.745Z,48.56
2022-09-03T16:14:25.580Z,49.33
2022-09-03T16:17:02.080Z,49.11
2022-09-03T16:19:38.082Z,49.10
2022-09-03T16:22:14.045Z,49.52
2022-09-03T16:25:07.298Z,50.27
2022-09-03T16:27:51.496Z,49.99
2022-09-03T16:30:37.181Z,49.25
2022-09-03T16:33:27.917Z,50.47
2022-09-03T16:36:12.469Z,51.15
2022-09-03T16:39:10.750Z,50.21
2022-09-03T16:41:46.439Z,50.13
2022-09-03T16:44:25.185Z,49.78
2022-09-03T16:47:16.640Z,50.41
2022-09-03T16:50:11.121Z,50.49
2022-09-03T16:53:11.186Z,49.84
2022-09-03T16:56:04.452Z,50.30
2022-09-03T16:58:51.316Z,49.39
2022-09-03T17:01:36.297Z,48.95
2022-09-03T17:04:21.516Z,49.77
2022-09-03T17:07:23.815Z,49.78
2022-09-03T17:09:59.575Z,49.82
2022-09-03T17:13:03.997Z,49.00
2022-09-03T17:15:44.864Z,48.77
2022-09-03T17:18:40.621Z,48.92
2022-09-03T17:21:10.283Z,50.52
2022-09-03T17:24:06.313Z,50.83
2022-09-03T17:26:45.764Z,51.39
2022-09-03T17:29:30.921Z,50.19
2022-09-03T17:32:07.581Z,50.19
2022-09-03T17:35:06.413Z,51.88
2022-09-03T17:37:52.838Z,53.08
2022-09-03T17:40:28.099Z,53.36
2022-09-03T17:43:14.610Z,54.22
2022-09-03T17:45:51.665Z,53.73
2022-09-03T17:48:24.266Z,55.36
2022-09-03T17:50:53.537Z,55.34
2022-09-03T17:53:32.383Z,55.50
2022-09-03T17:56:06.481Z,55.84
2022-09-03T17:58:43.862Z,55.26
2022-09-03T18:01:10.447Z,54.98
2022-09-03T18:03:46.078Z,54.51
2022-09-03T18:06:40.705Z,55.11
2022-09-03T18:09:24.016Z,55.54
2022-09-03T18:11:57.102Z,55.59
2022-09-03T18:14:34.235Z,55.63
2022-09-03T18:17:05.612Z,54.48
2022-09-03T18:20:09.605Z,54.99
2022-09-03T18:23:20.234Z,55.75
2022-09-03T18:26:20.688Z,55.61
2022-09-03T18:29:10.669Z,56.51
2022-09-03T18:31:55.934Z,57.47
2022-09-03T18:34:49.673Z,56.19
2022-09-03T18:37:39.609Z,56.81
2022-09-03T18:40:27.439Z,56.70
2022-09-03T18:43:33.640Z,56.44
2022-09-03T18:49:54.426Z,57.37
2022-09-03T18:53:01.072Z,56.72
2022-09-03T18:56:08.201Z,56.52
2022-09-03T18:59:16.670Z,57.20
2022-09-03T19:02:02.826Z,57.19
2022-09-03T19:05:33.174Z,57.34
2022-09-03T19:08:41.455Z,57.72
2022-09-03T19:11:43.149Z,59.03
2022-09-03T19:14:53.051Z,59.09
2022-09-03T19:18:00.798Z,59.12
2022-09-03T19:20:51.107Z,58.94
2022-09-03T19:23:36.278Z,58.38
2022-09-03T19:26:37.614Z,58.07
2022-09-03T19:29:30.297Z,58.02
2022-09-03T19:32:26.811Z,58.20
2022-09-03T19:35:36.687Z,59.19
2022-09-03T19:38:28.096Z,59.30
2022-09-03T19:41:21.421Z,59.38
2022-09-03T19:44:33.963Z,60.49
2022-09-03T19:47:22.635Z,61.01
2022-09-03T19:50:22.967Z,60.87
2022-09-03T19:53:13.170Z,60.63
2022-09-03T19:56:07.571Z,60.65
2022-09-03T19:58:57.316Z,60.27
2022-09-03T20:01:48.251Z,59.73
2022-09-03T20:04:35.003Z,59.28
2022-09-03T20:07:23.639Z,59.50
2022-09-03T20:10:10.639Z,59.22
2022-09-03T20:12:43.414Z,59.12
2022-09-03T20:15:10.554Z,58.92
2022-09-03T20:17:52.697Z,60.12
2022-09-03T20:20:25.260Z,59.86
2022-09-03T20:22:59.652Z,59.39
2022-09-03T20:26:00.146Z,59.77
2022-09-03T20:28:45.841Z,59.39
2022-09-03T20:31:44.024Z,60.09
2022-09-03T20:34:16.529Z,61.21
2022-09-03T20:37:04.668Z,63.18
2022-09-03T20:40:12.355Z,62.33
2022-09-03T20:42:55.273Z,61.57
2022-09-03T20:45:46.431Z,61.04
2022-09-03T20:48:36.801Z,61.41
2022-09-03T20:51:12.005Z,60.41
2022-09-03T20:54:15.372Z,61.00
2022-09-03T20:57:02.907Z,61.69
2022-09-03T21:00:03.492Z,63.14
2022-09-03T21:02:58.297Z,63.03
2022-09-03T21:05:30.445Z,62.46
2022-09-03T21:08:21.290Z,61.55
2022-09-03T21:11:09.774Z,61.72
2022-09-03T21:13:52.044Z,61.53
2022-09-03T21:16:24.557Z,61.94
2022-09-03T21:19:06.903Z,61.49
2022-09-03T21:21:59.605Z,60.90
2022-09-03T21:24:35.018Z,60.83
2022-09-03T21:27:15.094Z,61.21
2022-09-03T21:29:47.836Z,60.28
2022-09-03T21:32:33.649Z,61.11
2022-09-03T21:35:15.191Z,60.90
2022-09-03T21:37:58.150Z,61.07
2022-09-03T21:40:31.401Z,62.21
2022-09-03T21:43:08.478Z,62.89
2022-09-03T21:45:52.051Z,63.40
2022-09-03T21:48:25.522Z,63.17
2022-09-03T21:50:58.824Z,63.25
2022-09-03T21:53:42.471Z,63.93
2022-09-03T21:56:34.462Z,63.24
2022-09-03T21:59:26.350Z,62.44
2022-09-03T22:02:03.434Z,62.28
2022-09-03T22:04:30.838Z,61.32
2022-09-03T22:07:00.322Z,61.80
2022-09-03T22:09:40.966Z,61.76
2022-09-03T22:12:20.329Z,61.41
2022-09-03T22:14:51.811Z,61.89
2022-09-03T22:17:47.051Z,61.56
2022-09-03T22:20:15.597Z,61.41
2022-09-03T22:22:56.697Z,61.93
2022-09-03T22:25:37.139Z,64.56
2022-09-03T22:28:06.593Z,64.46
2022-09-03T22:31:24.736Z,63.28
2022-09-03T22:33:56.727Z,62.56
2022-09-03T22:36:40.238Z,62.38
2022-09-03T22:39:18.079Z,63.98
2022-09-03T22:42:18.019Z,62.58
2022-09-03T22:44:59.532Z,61.88
2022-09-03T22:47:50.866Z,61.25
2022-09-03T22:50:36.189Z,61.63
2022-09-03T22:53:11.915Z,61.35
2022-09-03T22:55:45.798Z,62.16
2022-09-03T22:58:19.706Z,61.91
2022-09-03T23:00:57.600Z,61.88
2022-09-03T23:03:39.170Z,61.19
2022-09-03T23:06:16.621Z,61.43
2022-09-03T23:08:56.638Z,61.53
2022-09-03T23:11:31.550Z,61.70
2022-09-03T23:14:08.266Z,62.07
2022-09-03T23:16:46.611Z,64.41
2022-09-03T23:22:07.205Z,64.01
2022-09-03T23:24:36.923Z,63.08
2022-09-03T23:27:10.075Z,62.63
2022-09-03T23:29:51.232Z,63.18
2022-09-03T23:32:18.227Z,62.29
2022-09-03T23:34:44.949Z,62.41
2022-09-03T23:37:33.477Z,62.64
2022-09-03T23:40:28.695Z,62.30
2022-09-03T23:43:17.115Z,62.17
2022-09-03T23:46:15.458Z,62.14
2022-09-03T23:48:54.343Z,61.98
2022-09-03T23:51:29.855Z,62.12
2022-09-03T23:54:16.724Z,62.17
2022-09-03T23:57:08.370Z,61.93
